sensor_id;sensor_type;location;lat;lon;timestamp;pressure;altitude;pressure_sealevel;temperature;humidity
21449;BME280;10885;52.830;13.788;2023-07-31T03:07:09;100531.72;;;14.24;92.07
21449;BME280;10885;52.830;13.788;2023-07-31T03:12:11;100534.56;;;14.09;93.73
21449;BME280;10885;52.830;13.788;2023-07-31T03:17:15;100537.84;;;14.05;95.65
21449;BME280;10885;52.830;13.788;2023-07-31T03:22:17;100548.41;;;14.11;95.27
21449;BME280;10885;52.830;13.788;2023-07-31T03:27:20;100539.66;;;14.07;95.76
21449;BME280;10885;52.830;13.788;2023-07-31T03:32:23;100536.47;;;14.13;96.27
21449;BME280;10885;52.830;13.788;2023-07-31T03:37:26;100530.53;;;14.16;96.54
21449;BME280;10885;52.830;13.788;2023-07-31T03:42:28;100529.09;;;14.22;95.92
21449;BME280;10885;52.830;13.788;2023-07-31T03:47:32;100512.06;;;14.26;96.58
21449;BME280;10885;52.830;13.788;2023-07-31T03:52:34;100509.41;;;14.24;96.15
21449;BME280;10885;52.830;13.788;2023-07-31T03:57:37;100502.56;;;14.25;96.31
21449;BME280;10885;52.830;13.788;2023-07-31T04:02:39;100495.84;;;14.28;96.73
21449;BME280;10885;52.830;13.788;2023-07-31T04:07:42;100494.88;;;14.26;96.37
21449;BME280;10885;52.830;13.788;2023-07-31T04:12:45;100492.31;;;14.26;96.96
21449;BME280;10885;52.830;13.788;2023-07-31T04:17:47;100489.88;;;14.29;97.02
21449;BME280;10885;52.830;13.788;2023-07-31T04:22:50;100482.28;;;14.32;96.12
21449;BME280;10885;52.830;13.788;2023-07-31T04:27:52;100485.25;;;14.43;96.26
21449;BME280;10885;52.830;13.788;2023-07-31T04:32:55;100479.84;;;14.58;95.63
21449;BME280;10885;52.830;13.788;2023-07-31T04:37:57;100469.09;;;14.68;94.91
21449;BME280;10885;52.830;13.788;2023-07-31T04:43:00;100471.94;;;14.76;94.33
21449;BME280;10885;52.830;13.788;2023-07-31T04:48:03;100463.47;;;14.79;94.16
21449;BME280;10885;52.830;13.788;2023-07-31T04:53:06;100475.84;;;14.87;94.01
21449;BME280;10885;52.830;13.788;2023-07-31T04:58:08;100480.50;;;14.96;93.75
21449;BME280;10885;52.830;13.788;2023-07-31T05:03:11;100474.66;;;15.02;93.61
21449;BME280;10885;52.830;13.788;2023-07-31T05:08:14;100474.00;;;15.07;93.25
21449;BME280;10885;52.830;13.788;2023-07-31T05:13:16;100462.75;;;15.05;93.43
21449;BME280;10885;52.830;13.788;2023-07-31T05:18:19;100457.19;;;14.95;94.59
21449;BME280;10885;52.830;13.788;2023-07-31T05:23:22;100462.94;;;14.87;94.84
21449;BME280;10885;52.830;13.788;2023-07-31T05:28:24;100459.56;;;14.90;95.71
21449;BME280;10885;52.830;13.788;2023-07-31T05:33:27;100448.59;;;14.94;95.88
21449;BME280;10885;52.830;13.788;2023-07-31T05:38:30;100447.97;;;15.01;95.84
21449;BME280;10885;52.830;13.788;2023-07-31T05:43:32;100444.81;;;15.08;95.60
21449;BME280;10885;52.830;13.788;2023-07-31T05:48:35;100444.09;;;15.13;95.78
21449;BME280;10885;52.830;13.788;2023-07-31T05:53:38;100449.19;;;15.11;95.58
21449;BME280;10885;52.830;13.788;2023-07-31T05:58:43;100445.66;;;15.09;95.64
21449;BME280;10885;52.830;13.788;2023-07-31T06:03:45;100450.03;;;15.10;96.15
21449;BME280;10885;52.830;13.788;2023-07-31T06:08:48;100449.41;;;15.17;96.56
21449;BME280;10885;52.830;13.788;2023-07-31T06:13:52;100448.97;;;15.29;96.63
21449;BME280;10885;52.830;13.788;2023-07-31T06:18:54;100451.19;;;15.42;96.11
21449;BME280;10885;52.830;13.788;2023-07-31T06:23:57;100456.06;;;15.59;94.90
21449;BME280;10885;52.830;13.788;2023-07-31T06:28:59;100455.91;;;15.54;94.81
21449;BME280;10885;52.830;13.788;2023-07-31T06:34:02;100459.72;;;15.65;95.02
21449;BME280;10885;52.830;13.788;2023-07-31T06:39:05;100452.41;;;15.76;94.20
21449;BME280;10885;52.830;13.788;2023-07-31T06:44:07;100444.84;;;15.82;93.92
21449;BME280;10885;52.830;13.788;2023-07-31T06:49:10;100452.41;;;16.03;93.97
21449;BME280;10885;52.830;13.788;2023-07-31T06:54:12;100443.09;;;16.34;92.96
21449;BME280;10885;52.830;13.788;2023-07-31T06:59:15;100437.94;;;16.63;91.61
21449;BME280;10885;52.830;13.788;2023-07-31T07:04:17;100443.84;;;16.86;91.62
21449;BME280;10885;52.830;13.788;2023-07-31T07:09:20;100437.56;;;17.08;89.89
21449;BME280;10885;52.830;13.788;2023-07-31T07:14:22;100434.63;;;17.26;89.75
21449;BME280;10885;52.830;13.788;2023-07-31T07:19:25;100436.19;;;17.51;87.95
21449;BME280;10885;52.830;13.788;2023-07-31T07:24:28;100426.59;;;17.48;87.85
21449;BME280;10885;52.830;13.788;2023-07-31T07:29:30;100420.25;;;18.04;86.53
21449;BME280;10885;52.830;13.788;2023-07-31T07:34:33;100414.84;;;18.69;84.31
21449;BME280;10885;52.830;13.788;2023-07-31T07:39:35;100416.03;;;18.83;82.35
21449;BME280;10885;52.830;13.788;2023-07-31T07:44:38;100418.94;;;18.59;83.00
21449;BME280;10885;52.830;13.788;2023-07-31T07:49:41;100415.66;;;18.66;83.27
21449;BME280;10885;52.830;13.788;2023-07-31T07:54:43;100408.78;;;18.70;81.83
21449;BME280;10885;52.830;13.788;2023-07-31T07:59:46;100407.63;;;18.56;82.99
21449;BME280;10885;52.830;13.788;2023-07-31T08:04:48;100405.28;;;18.28;83.36
21449;BME280;10885;52.830;13.788;2023-07-31T08:09:51;100408.34;;;18.12;84.22
21449;BME280;10885;52.830;13.788;2023-07-31T08:14:53;100405.53;;;18.39;84.00
21449;BME280;10885;52.830;13.788;2023-07-31T08:19:56;100398.31;;;19.05;81.47
21449;BME280;10885;52.830;13.788;2023-07-31T08:25:00;100387.56;;;19.81;78.65
21449;BME280;10885;52.830;13.788;2023-07-31T08:30:03;100394.53;;;19.82;77.44
21449;BME280;10885;52.830;13.788;2023-07-31T08:35:06;100386.25;;;19.08;79.40
21449;BME280;10885;52.830;13.788;2023-07-31T08:40:09;100392.66;;;18.44;82.26
21449;BME280;10885;52.830;13.788;2023-07-31T08:45:16;100384.03;;;18.84;82.57
21449;BME280;10885;52.830;13.788;2023-07-31T08:50:20;100372.13;;;18.96;81.41
21449;BME280;10885;52.830;13.788;2023-07-31T08:55:23;100361.84;;;19.46;79.12
21449;BME280;10885;52.830;13.788;2023-07-31T09:00:27;100363.16;;;19.25;79.22
21449;BME280;10885;52.830;13.788;2023-07-31T09:05:31;100367.56;;;19.28;79.53
21449;BME280;10885;52.830;13.788;2023-07-31T09:10:33;100371.66;;;19.15;79.23
21449;BME280;10885;52.830;13.788;2023-07-31T09:15:36;100371.16;;;19.35;77.85
21449;BME280;10885;52.830;13.788;2023-07-31T09:20:40;100376.50;;;18.97;77.90
21449;BME280;10885;52.830;13.788;2023-07-31T09:25:45;100377.72;;;18.73;78.64
21449;BME280;10885;52.830;13.788;2023-07-31T09:30:50;100366.13;;;19.44;77.01
21449;BME280;10885;52.830;13.788;2023-07-31T09:35:53;100361.66;;;21.14;72.48
21449;BME280;10885;52.830;13.788;2023-07-31T09:40:58;100363.34;;;20.43;72.73
21449;BME280;10885;52.830;13.788;2023-07-31T09:46:01;100363.88;;;19.64;76.55
21449;BME280;10885;52.830;13.788;2023-07-31T09:51:04;100358.50;;;19.55;77.65
21449;BME280;10885;52.830;13.788;2023-07-31T09:56:07;100354.94;;;19.48;77.09
21449;BME280;10885;52.830;13.788;2023-07-31T10:01:10;100349.00;;;19.57;76.65
21449;BME280;10885;52.830;13.788;2023-07-31T10:06:13;100352.66;;;20.21;75.45
21449;BME280;10885;52.830;13.788;2023-07-31T10:11:19;100352.66;;;20.85;70.14
21449;BME280;10885;52.830;13.788;2023-07-31T10:16:22;100343.72;;;20.63;70.68
21449;BME280;10885;52.830;13.788;2023-07-31T10:21:25;100339.47;;;20.08;73.62
21449;BME280;10885;52.830;13.788;2023-07-31T10:26:29;100343.25;;;19.24;77.30
21449;BME280;10885;52.830;13.788;2023-07-31T10:31:33;100339.19;;;18.93;80.87
21449;BME280;10885;52.830;13.788;2023-07-31T10:36:37;100323.69;;;18.96;80.74
21449;BME280;10885;52.830;13.788;2023-07-31T10:41:40;100333.41;;;18.65;81.41
21449;BME280;10885;52.830;13.788;2023-07-31T10:46:45;100338.97;;;18.41;82.73
21449;BME280;10885;52.830;13.788;2023-07-31T10:51:48;100319.63;;;18.68;83.75
21449;BME280;10885;52.830;13.788;2023-07-31T10:56:50;100328.03;;;19.47;82.42
21449;BME280;10885;52.830;13.788;2023-07-31T11:01:56;100326.16;;;19.88;80.23
21449;BME280;10885;52.830;13.788;2023-07-31T11:07:05;100321.84;;;19.90;76.66
21449;BME280;10885;52.830;13.788;2023-07-31T11:12:10;100320.31;;;19.51;78.88
21449;BME280;10885;52.830;13.788;2023-07-31T11:17:14;100314.81;;;19.34;80.34
21449;BME280;10885;52.830;13.788;2023-07-31T11:22:17;100311.63;;;19.48;80.78
21449;BME280;10885;52.830;13.788;2023-07-31T11:27:20;100303.50;;;19.32;80.30
21449;BME280;10885;52.830;13.788;2023-07-31T11:32:23;100299.78;;;20.24;78.89
21449;BME280;10885;52.830;13.788;2023-07-31T11:37:41;100293.72;;;20.95;74.17
21449;BME280;10885;52.830;13.788;2023-07-31T11:42:43;100299.97;;;21.11;73.41
21449;BME280;10885;52.830;13.788;2023-07-31T11:47:46;100287.06;;;21.28;71.36
21449;BME280;10885;52.830;13.788;2023-07-31T11:52:50;100294.88;;;21.25;71.89
21449;BME280;10885;52.830;13.788;2023-07-31T11:57:56;100282.22;;;21.67;70.26
21449;BME280;10885;52.830;13.788;2023-07-31T12:02:59;100268.38;;;21.81;68.10
21449;BME280;10885;52.830;13.788;2023-07-31T12:08:09;100264.50;;;22.79;67.65
21449;BME280;10885;52.830;13.788;2023-07-31T12:13:20;100261.88;;;24.13;62.86
21449;BME280;10885;52.830;13.788;2023-07-31T12:18:25;100254.13;;;23.11;64.00
21449;BME280;10885;52.830;13.788;2023-07-31T12:23:32;100260.63;;;21.92;66.45
21449;BME280;10885;52.830;13.788;2023-07-31T12:33:46;100237.78;;;21.56;67.57
21449;BME280;10885;52.830;13.788;2023-07-31T12:38:50;100225.19;;;22.31;64.04
21449;BME280;10885;52.830;13.788;2023-07-31T12:43:53;100227.03;;;22.69;60.87
21449;BME280;10885;52.830;13.788;2023-07-31T12:48:57;100223.41;;;22.30;59.89
21449;BME280;10885;52.830;13.788;2023-07-31T12:54:00;100239.44;;;21.43;63.26
21449;BME280;10885;52.830;13.788;2023-07-31T12:59:02;100233.56;;;20.74;65.65
21449;BME280;10885;52.830;13.788;2023-07-31T13:04:05;100235.94;;;20.57;66.59
21449;BME280;10885;52.830;13.788;2023-07-31T13:09:07;100229.69;;;21.26;65.14
21449;BME280;10885;52.830;13.788;2023-07-31T13:14:11;100233.47;;;21.62;63.69
21449;BME280;10885;52.830;13.788;2023-07-31T13:19:14;100228.88;;;21.29;65.57
21449;BME280;10885;52.830;13.788;2023-07-31T13:24:17;100229.38;;;20.85;65.91
21449;BME280;10885;52.830;13.788;2023-07-31T13:29:19;100223.06;;;20.64;66.92
21449;BME280;10885;52.830;13.788;2023-07-31T13:34:24;100218.56;;;20.53;67.35
21449;BME280;10885;52.830;13.788;2023-07-31T13:39:26;100202.59;;;21.01;66.30
21449;BME280;10885;52.830;13.788;2023-07-31T13:44:29;100206.47;;;21.54;64.78
21449;BME280;10885;52.830;13.788;2023-07-31T13:49:32;100196.19;;;21.73;64.49
21449;BME280;10885;52.830;13.788;2023-07-31T13:54:35;100207.56;;;21.89;64.69
21449;BME280;10885;52.830;13.788;2023-07-31T13:59:38;100198.81;;;21.82;65.01
21449;BME280;10885;52.830;13.788;2023-07-31T14:04:41;100191.72;;;21.55;65.63
21449;BME280;10885;52.830;13.788;2023-07-31T14:09:44;100191.81;;;21.72;65.18
21449;BME280;10885;52.830;13.788;2023-07-31T14:14:46;100186.78;;;22.12;64.54
21449;BME280;10885;52.830;13.788;2023-07-31T14:19:49;100172.13;;;22.46;63.57
21449;BME280;10885;52.830;13.788;2023-07-31T14:24:53;100168.69;;;22.78;61.32
21449;BME280;10885;52.830;13.788;2023-07-31T14:29:55;100172.03;;;22.21;62.59
21449;BME280;10885;52.830;13.788;2023-07-31T14:34:58;100166.81;;;22.23;64.07
21449;BME280;10885;52.830;13.788;2023-07-31T14:40:01;100163.41;;;22.41;63.37
21449;BME280;10885;52.830;13.788;2023-07-31T14:45:05;100153.69;;;22.01;63.67
21449;BME280;10885;52.830;13.788;2023-07-31T14:50:08;100153.41;;;21.43;65.74
21449;BME280;10885;52.830;13.788;2023-07-31T14:55:11;100154.97;;;21.22;67.01
21449;BME280;10885;52.830;13.788;2023-07-31T15:00:14;100161.03;;;21.20;67.83
21449;BME280;10885;52.830;13.788;2023-07-31T15:05:17;100144.47;;;21.12;69.42
21449;BME280;10885;52.830;13.788;2023-07-31T15:10:19;100137.38;;;20.92;71.26
21449;BME280;10885;52.830;13.788;2023-07-31T15:15:22;100130.31;;;20.79;70.58
21449;BME280;10885;52.830;13.788;2023-07-31T15:20:26;100122.44;;;20.70;70.38
21449;BME280;10885;52.830;13.788;2023-07-31T15:25:28;100116.22;;;20.58;70.81
21449;BME280;10885;52.830;13.788;2023-07-31T15:30:31;100115.19;;;20.39;71.40
21449;BME280;10885;52.830;13.788;2023-07-31T15:35:33;100103.81;;;20.30;70.69
21449;BME280;10885;52.830;13.788;2023-07-31T15:40:38;100103.66;;;20.19;71.12
21449;BME280;10885;52.830;13.788;2023-07-31T15:45:41;100099.38;;;20.22;70.67
21449;BME280;10885;52.830;13.788;2023-07-31T15:50:43;100083.00;;;20.34;70.81
21449;BME280;10885;52.830;13.788;2023-07-31T15:55:46;100082.22;;;20.44;69.17
21449;BME280;10885;52.830;13.788;2023-07-31T16:00:48;100081.47;;;20.55;68.27
21449;BME280;10885;52.830;13.788;2023-07-31T16:05:52;100078.97;;;20.64;67.42
21449;BME280;10885;52.830;13.788;2023-07-31T16:10:54;100078.88;;;20.53;66.92
21449;BME280;10885;52.830;13.788;2023-07-31T16:16:00;100067.44;;;20.40;66.73
21449;BME280;10885;52.830;13.788;2023-07-31T16:21:02;100089.00;;;20.25;66.97
21449;BME280;10885;52.830;13.788;2023-07-31T16:26:05;100093.19;;;20.11;68.15
21449;BME280;10885;52.830;13.788;2023-07-31T16:31:09;100079.91;;;19.86;70.84
21449;BME280;10885;52.830;13.788;2023-07-31T16:36:11;100103.78;;;19.56;73.04
21449;BME280;10885;52.830;13.788;2023-07-31T16:41:14;100103.47;;;19.33;75.92
21449;BME280;10885;52.830;13.788;2023-07-31T16:46:17;100103.97;;;19.09;77.57
21449;BME280;10885;52.830;13.788;2023-07-31T16:51:19;100093.16;;;18.81;79.28
21449;BME280;10885;52.830;13.788;2023-07-31T16:56:22;100082.47;;;18.66;80.43
21449;BME280;10885;52.830;13.788;2023-07-31T17:01:25;100081.44;;;18.55;82.01
21449;BME280;10885;52.830;13.788;2023-07-31T17:06:33;100067.56;;;18.54;82.70
21449;BME280;10885;52.830;13.788;2023-07-31T17:11:36;100063.19;;;18.48;84.12
21449;BME280;10885;52.830;13.788;2023-07-31T17:16:39;100060.56;;;18.47;85.06
21449;BME280;10885;52.830;13.788;2023-07-31T17:21:42;100057.16;;;18.51;85.36
21449;BME280;10885;52.830;13.788;2023-07-31T17:26:44;100057.13;;;18.49;85.58
21449;BME280;10885;52.830;13.788;2023-07-31T17:31:47;100055.38;;;18.47;86.26
21449;BME280;10885;52.830;13.788;2023-07-31T17:36:50;100062.19;;;18.42;86.67
21449;BME280;10885;52.830;13.788;2023-07-31T17:41:52;100057.72;;;18.33;87.41
21449;BME280;10885;52.830;13.788;2023-07-31T17:46:57;100072.31;;;18.26;88.06
21449;BME280;10885;52.830;13.788;2023-07-31T17:51:59;100076.34;;;18.11;89.74
21449;BME280;10885;52.830;13.788;2023-07-31T17:57:03;100077.78;;;17.96;90.03
21449;BME280;10885;52.830;13.788;2023-07-31T18:02:06;100081.88;;;17.83;91.21
21449;BME280;10885;52.830;13.788;2023-07-31T18:07:08;100080.69;;;17.69;91.46
21449;BME280;10885;52.830;13.788;2023-07-31T18:12:11;100079.59;;;17.58;91.74
21449;BME280;10885;52.830;13.788;2023-07-31T18:17:14;100078.47;;;17.46;92.56
21449;BME280;10885;52.830;13.788;2023-07-31T18:22:17;100065.34;;;17.37;92.79
21449;BME280;10885;52.830;13.788;2023-07-31T18:27:20;100068.63;;;17.30;93.35
21449;BME280;10885;52.830;13.788;2023-07-31T18:32:23;100063.41;;;17.27;93.49
21449;BME280;10885;52.830;13.788;2023-07-31T18:37:25;100052.06;;;17.22;94.51
21449;BME280;10885;52.830;13.788;2023-07-31T18:42:28;100052.72;;;17.13;94.31
21449;BME280;10885;52.830;13.788;2023-07-31T18:47:30;100036.13;;;17.05;94.74
21449;BME280;10885;52.830;13.788;2023-07-31T18:52:33;100041.22;;;17.00;95.13
21449;BME280;10885;52.830;13.788;2023-07-31T18:57:36;100035.03;;;16.94;95.04
21449;BME280;10885;52.830;13.788;2023-07-31T19:02:38;100033.09;;;16.85;95.86
21449;BME280;10885;52.830;13.788;2023-07-31T19:07:42;100033.97;;;16.85;96.33
21449;BME280;10885;52.830;13.788;2023-07-31T19:12:48;100019.06;;;16.77;96.32
21449;BME280;10885;52.830;13.788;2023-07-31T19:17:50;100024.25;;;16.77;96.71
21449;BME280;10885;52.830;13.788;2023-07-31T19:22:53;100024.19;;;16.74;96.81
21449;BME280;10885;52.830;13.788;2023-07-31T19:27:56;100016.38;;;16.72;96.73
21449;BME280;10885;52.830;13.788;2023-07-31T19:32:59;100016.47;;;16.75;96.78
21449;BME280;10885;52.830;13.788;2023-07-31T19:38:02;100005.94;;;16.69;97.16
21449;BME280;10885;52.830;13.788;2023-07-31T19:43:05;100005.13;;;16.70;96.72
21449;BME280;10885;52.830;13.788;2023-07-31T19:48:09;100000.81;;;16.70;96.87
21449;BME280;10885;52.830;13.788;2023-07-31T19:53:13;99991.31;;;16.71;97.19
21449;BME280;10885;52.830;13.788;2023-07-31T19:58:15;99987.81;;;16.67;96.78
21449;BME280;10885;52.830;13.788;2023-07-31T20:03:18;99983.44;;;16.65;96.83
21449;BME280;10885;52.830;13.788;2023-07-31T20:08:21;99977.34;;;16.61;96.66
21449;BME280;10885;52.830;13.788;2023-07-31T20:13:23;99977.28;;;16.60;96.32
21449;BME280;10885;52.830;13.788;2023-07-31T20:18:26;99979.00;;;16.59;96.35
21449;BME280;10885;52.830;13.788;2023-07-31T20:23:28;99975.53;;;16.59;95.96
21449;BME280;10885;52.830;13.788;2023-07-31T20:28:44;99970.38;;;16.60;95.59
21449;BME280;10885;52.830;13.788;2023-07-31T20:33:47;99948.88;;;16.63;94.89
21449;BME280;10885;52.830;13.788;2023-07-31T20:38:50;99940.34;;;16.65;94.33
21449;BME280;10885;52.830;13.788;2023-07-31T20:43:52;99935.13;;;16.64;94.30
21449;BME280;10885;52.830;13.788;2023-07-31T20:48:55;99914.34;;;16.61;94.28
21449;BME280;10885;52.830;13.788;2023-07-31T20:53:57;99912.59;;;16.60;93.44
21449;BME280;10885;52.830;13.788;2023-07-31T20:59:00;99905.72;;;16.60;93.42
21449;BME280;10885;52.830;13.788;2023-07-31T21:04:02;99906.56;;;16.59;93.30
21449;BME280;10885;52.830;13.788;2023-07-31T21:09:07;99897.88;;;16.57;93.38
21449;BME280;10885;52.830;13.788;2023-07-31T21:14:09;99892.69;;;16.56;93.27
21449;BME280;10885;52.830;13.788;2023-07-31T21:19:12;99887.50;;;16.57;93.20
21449;BME280;10885;52.830;13.788;2023-07-31T21:24:16;99885.69;;;16.53;93.21
21449;BME280;10885;52.830;13.788;2023-07-31T21:29:18;99891.78;;;16.54;93.24
21449;BME280;10885;52.830;13.788;2023-07-31T21:34:21;99884.88;;;16.54;93.59
